createdAt,value
2022-11-27T00:01:13.996Z,9.77
2022-11-27T00:03:41.917Z,13.13
2022-11-27T00:06:13.003Z,11.47
2022-11-27T00:08:39.792Z,4.80
2022-11-27T00:11:13.387Z,8.70
2022-11-27T00:13:40.567Z,11.37
2022-11-27T00:16:07.973Z,8.77
2022-11-27T00:18:35.498Z,5.60
2022-11-27T00:21:07.656Z,9.53
2022-11-27T00:23:35.363Z,6.23
2022-11-27T00:26:03.425Z,5.53
2022-11-27T00:28:30.395Z,10.00
2022-11-27T00:31:34.294Z,9.40
2022-11-27T00:34:03.562Z,10.03
2022-11-27T00:36:32.021Z,5.43
2022-11-27T00:38:59.153Z,8.90
2022-11-27T00:41:28.485Z,8.23
2022-11-27T00:43:55.403Z,16.00
2022-11-27T00:46:28.382Z,8.10
2022-11-27T00:48:57.418Z,6.37
2022-11-27T00:51:25.003Z,5.83
2022-11-27T00:53:52.918Z,7.90
2022-11-27T00:56:23.487Z,8.30
2022-11-27T00:58:51.013Z,8.47
2022-11-27T01:01:20.755Z,8.83
2022-11-27T01:03:48.432Z,5.13
2022-11-27T01:06:17.129Z,5.60
2022-11-27T01:08:44.013Z,7.00
2022-11-27T01:11:16.291Z,4.90
2022-11-27T01:13:43.490Z,12.13
2022-11-27T01:16:13.736Z,4.27
2022-11-27T01:18:42.827Z,9.30
2022-11-27T01:21:10.989Z,5.13
2022-11-27T01:23:38.122Z,6.17
2022-11-27T01:26:08.309Z,7.47
2022-11-27T01:28:35.936Z,5.77
2022-11-27T01:31:13.621Z,4.00
2022-11-27T01:33:40.640Z,7.80
2022-11-27T01:36:08.505Z,11.40
2022-11-27T01:38:35.985Z,7.33
2022-11-27T01:41:14.981Z,5.50
2022-11-27T01:43:47.517Z,6.17
2022-11-27T01:46:58.955Z,7.70
2022-11-27T01:49:29.156Z,13.80
2022-11-27T01:52:09.667Z,5.03
2022-11-27T01:54:45.493Z,2.90
2022-11-27T01:57:16.376Z,9.30
2022-11-27T01:59:43.938Z,5.67
2022-11-27T02:02:10.793Z,7.23
2022-11-27T02:04:37.684Z,3.90
2022-11-27T02:07:04.594Z,5.93
2022-11-27T02:09:32.013Z,7.43
2022-11-27T02:12:15.209Z,7.60
2022-11-27T02:15:08.678Z,7.27
2022-11-27T02:17:51.803Z,6.37
2022-11-27T02:20:45.532Z,8.73
2022-11-27T02:23:49.605Z,11.47
2022-11-27T02:26:40.136Z,9.80
2022-11-27T02:29:10.323Z,9.23
2022-11-27T02:31:56.107Z,10.50
2022-11-27T02:35:01.478Z,11.90
2022-11-27T02:37:36.078Z,8.30
2022-11-27T02:40:14.310Z,9.67
2022-11-27T02:43:01.285Z,9.57
2022-11-27T02:45:36.011Z,9.20
2022-11-27T02:48:04.164Z,11.90
2022-11-27T02:50:34.499Z,9.40
2022-11-27T02:53:05.839Z,14.00
2022-11-27T02:55:36.344Z,13.40
2022-11-27T02:58:09.123Z,11.10
2022-11-27T03:00:37.427Z,12.07
2022-11-27T03:03:07.501Z,10.07
2022-11-27T03:05:39.821Z,14.33
2022-11-27T03:08:20.200Z,12.97
2022-11-27T03:11:10.131Z,15.27
2022-11-27T03:13:41.572Z,16.20
2022-11-27T03:16:24.593Z,15.60
2022-11-27T03:19:47.398Z,16.80
2022-11-27T03:22:14.980Z,18.37
2022-11-27T03:24:42.041Z,9.83
2022-11-27T03:27:11.425Z,15.77
2022-11-27T03:29:51.735Z,24.13
2022-11-27T03:32:18.897Z,14.70
2022-11-27T03:34:46.951Z,12.70
2022-11-27T03:37:14.029Z,16.00
2022-11-27T03:39:41.157Z,15.40
2022-11-27T03:42:22.806Z,27.53
2022-11-27T03:45:27.215Z,15.13
2022-11-27T03:48:17.190Z,15.60
2022-11-27T03:51:07.581Z,21.27
2022-11-27T03:53:51.999Z,17.77
2022-11-27T03:56:21.632Z,18.17
2022-11-27T03:58:56.121Z,25.40
2022-11-27T04:01:25.547Z,21.40
2022-11-27T04:03:52.387Z,19.70
2022-11-27T04:06:19.292Z,15.27
2022-11-27T04:08:47.431Z,19.00
2022-11-27T04:11:15.179Z,15.40
2022-11-27T04:13:41.948Z,12.07
2022-11-27T04:16:08.926Z,17.60
2022-11-27T04:18:35.759Z,17.07
2022-11-27T04:21:03.975Z,13.87
2022-11-27T04:23:30.707Z,16.80
2022-11-27T04:25:57.508Z,13.03
2022-11-27T04:28:24.140Z,17.13
2022-11-27T04:30:53.035Z,15.50
2022-11-27T04:33:19.786Z,14.90
2022-11-27T04:35:46.500Z,13.33
2022-11-27T04:38:13.391Z,10.47
2022-11-27T04:40:40.156Z,13.37
2022-11-27T04:43:07.029Z,14.63
2022-11-27T04:45:33.939Z,13.97
2022-11-27T04:48:00.741Z,11.43
2022-11-27T04:50:27.493Z,11.53
2022-11-27T04:52:54.245Z,13.00
2022-11-27T04:55:21.029Z,15.50
2022-11-27T04:57:47.797Z,11.70
2022-11-27T05:00:14.999Z,15.10
2022-11-27T05:02:41.927Z,13.50
2022-11-27T05:05:09.364Z,11.77
2022-11-27T05:07:36.358Z,8.60
2022-11-27T05:10:04.723Z,8.60
2022-11-27T05:12:31.955Z,14.80
2022-11-27T05:15:01.846Z,13.20
2022-11-27T05:17:31.091Z,12.17
2022-11-27T05:19:57.835Z,13.90
2022-11-27T05:22:24.474Z,9.80
2022-11-27T05:24:51.199Z,7.30
2022-11-27T05:27:17.860Z,15.07
2022-11-27T05:29:44.597Z,11.80
2022-11-27T05:32:11.369Z,12.30
2022-11-27T05:34:38.292Z,13.07
2022-11-27T05:37:05.348Z,6.90
2022-11-27T05:39:32.040Z,10.57
2022-11-27T05:41:58.835Z,10.97
2022-11-27T05:44:27.016Z,10.30
2022-11-27T05:46:53.736Z,10.80
2022-11-27T05:49:20.453Z,8.40
2022-11-27T05:51:51.396Z,9.50
2022-11-27T05:54:18.560Z,6.27
2022-11-27T05:56:45.267Z,11.10
2022-11-27T05:59:12.565Z,9.70
2022-11-27T06:01:39.383Z,8.53
2022-11-27T06:04:06.245Z,5.87
2022-11-27T06:06:32.951Z,11.07
2022-11-27T06:09:00.510Z,6.00
2022-11-27T06:11:27.361Z,12.23
2022-11-27T06:13:54.028Z,9.40
2022-11-27T06:16:22.968Z,12.80
2022-11-27T06:18:54.160Z,11.10
2022-11-27T06:21:23.291Z,7.13
2022-11-27T06:23:53.888Z,11.90
2022-11-27T06:26:23.585Z,7.83
2022-11-27T06:28:51.145Z,10.00
2022-11-27T06:31:20.658Z,8.53
2022-11-27T06:33:48.675Z,11.40
2022-11-27T06:36:16.306Z,11.47
2022-11-27T06:38:43.480Z,8.90
2022-11-27T06:41:12.777Z,6.10
2022-11-27T06:43:39.798Z,9.73
2022-11-27T06:46:08.303Z,6.73
2022-11-27T06:48:35.330Z,9.60
2022-11-27T06:51:03.821Z,7.47
2022-11-27T06:53:31.753Z,9.53
2022-11-27T06:55:58.473Z,5.70
2022-11-27T06:58:30.648Z,6.10
2022-11-27T07:01:02.861Z,8.97
2022-11-27T07:03:29.869Z,7.70
2022-11-27T07:05:59.873Z,10.20
2022-11-27T07:08:26.826Z,6.30
2022-11-27T07:10:53.619Z,8.90
2022-11-27T07:13:20.606Z,5.60
2022-11-27T07:15:47.383Z,6.77
2022-11-27T07:18:14.108Z,11.53
2022-11-27T07:20:41.152Z,7.23
2022-11-27T07:23:07.852Z,12.03
2022-11-27T07:25:37.033Z,7.27
2022-11-27T07:28:03.836Z,6.63
2022-11-27T07:30:30.542Z,10.10
2022-11-27T07:32:57.551Z,7.37
2022-11-27T07:35:24.231Z,8.43
2022-11-27T07:37:50.991Z,6.70
2022-11-27T07:40:18.541Z,9.33
2022-11-27T07:42:45.697Z,5.10
2022-11-27T07:45:12.664Z,5.57
2022-11-27T07:47:39.814Z,8.73
2022-11-27T07:50:08.431Z,7.27
2022-11-27T07:52:41.019Z,5.27
2022-11-27T07:55:08.444Z,6.10
2022-11-27T07:57:35.277Z,9.20
2022-11-27T08:00:01.998Z,5.57
2022-11-27T08:02:28.772Z,6.73
2022-11-27T08:04:55.487Z,8.60
2022-11-27T08:07:27.671Z,4.90
2022-11-27T08:09:54.452Z,13.90
2022-11-27T08:12:22.815Z,5.30
2022-11-27T08:14:49.478Z,5.93
2022-11-27T08:17:16.300Z,9.17
2022-11-27T08:19:43.041Z,8.83
2022-11-27T08:22:14.139Z,6.87
2022-11-27T08:24:42.538Z,6.30
2022-11-27T08:27:10.320Z,6.70
2022-11-27T08:29:37.914Z,5.23
2022-11-27T08:32:05.596Z,7.83
2022-11-27T08:34:32.546Z,7.00
2022-11-27T08:36:59.336Z,6.33
2022-11-27T08:39:26.735Z,7.20
2022-11-27T08:41:54.140Z,6.40
2022-11-27T08:44:20.999Z,8.23
2022-11-27T08:46:47.668Z,5.83
2022-11-27T08:49:14.494Z,9.70
2022-11-27T08:51:41.344Z,6.43
2022-11-27T08:54:08.242Z,10.03
2022-11-27T08:56:36.127Z,7.20
2022-11-27T08:59:03.659Z,9.93
2022-11-27T09:01:32.261Z,8.80
2022-11-27T09:03:59.516Z,9.43
2022-11-27T09:06:31.342Z,15.00
2022-11-27T09:08:59.542Z,9.80
2022-11-27T09:11:27.444Z,6.77
2022-11-27T09:13:54.383Z,6.37
2022-11-27T09:16:22.535Z,13.90
2022-11-27T09:18:51.733Z,6.77
2022-11-27T09:21:21.762Z,5.77
2022-11-27T09:23:52.188Z,6.13
2022-11-27T09:26:18.892Z,7.53
2022-11-27T09:28:45.880Z,12.97
2022-11-27T09:31:15.125Z,9.60
2022-11-27T09:33:43.356Z,9.17
2022-11-27T09:36:11.516Z,4.60
2022-11-27T09:38:38.445Z,6.20
2022-11-27T09:41:26.185Z,5.87
2022-11-27T09:43:57.006Z,5.97
2022-11-27T09:46:32.031Z,7.57
2022-11-27T09:49:02.537Z,8.60
2022-11-27T09:51:38.013Z,5.80
2022-11-27T09:54:31.157Z,5.27
2022-11-27T09:56:59.258Z,6.90
2022-11-27T10:00:05.624Z,8.67
2022-11-27T10:02:35.105Z,5.53
2022-11-27T10:05:14.811Z,6.60
2022-11-27T10:07:49.257Z,4.60
2022-11-27T10:10:25.712Z,9.30
2022-11-27T10:13:23.361Z,6.67
2022-11-27T10:16:22.126Z,6.20
2022-11-27T10:18:56.217Z,7.50
2022-11-27T10:21:49.598Z,5.30
2022-11-27T10:24:42.523Z,8.03
2022-11-27T10:27:21.358Z,5.03
2022-11-27T10:29:56.098Z,7.00
2022-11-27T10:32:54.153Z,7.07
2022-11-27T10:35:20.519Z,6.83
2022-11-27T10:38:13.029Z,7.20
2022-11-27T10:41:03.859Z,5.43
2022-11-27T10:43:30.693Z,6.30
2022-11-27T10:46:02.824Z,6.07
2022-11-27T10:48:29.957Z,5.03
2022-11-27T10:50:57.208Z,4.70
2022-11-27T10:53:35.588Z,4.90
2022-11-27T10:56:36.585Z,7.43
2022-11-27T10:59:05.978Z,5.90
2022-11-27T11:02:03.477Z,5.30
2022-11-27T11:04:38.090Z,5.73
2022-11-27T11:07:28.747Z,5.83
2022-11-27T11:09:56.220Z,5.00
2022-11-27T11:12:24.195Z,5.77
2022-11-27T11:14:54.693Z,6.33
2022-11-27T11:17:34.294Z,5.63
2022-11-27T11:20:01.307Z,7.13
2022-11-27T11:22:28.576Z,10.20
2022-11-27T11:24:55.614Z,11.50
2022-11-27T11:27:32.255Z,7.57
2022-11-27T11:30:06.096Z,8.37
2022-11-27T11:32:38.847Z,5.33
2022-11-27T11:35:32.580Z,9.30
2022-11-27T11:38:01.488Z,7.00
2022-11-27T11:40:34.888Z,5.50
2022-11-27T11:43:20.966Z,5.73
2022-11-27T11:45:48.879Z,5.90
2022-11-27T11:48:21.780Z,4.97
2022-11-27T11:50:55.584Z,4.60
2022-11-27T11:53:36.129Z,5.73
2022-11-27T11:56:30.687Z,5.40
2022-11-27T11:59:12.406Z,9.67
2022-11-27T12:02:32.760Z,4.90
2022-11-27T12:05:04.346Z,5.70
2022-11-27T12:11:45.422Z,4.50
2022-11-27T12:14:56.196Z,4.57
2022-11-27T12:17:41.947Z,5.80
2022-11-27T12:20:33.684Z,7.37
2022-11-27T12:23:09.141Z,3.60
2022-11-27T12:25:44.103Z,4.20
2022-11-27T12:28:59.522Z,4.10
2022-11-27T12:31:32.266Z,8.53
2022-11-27T12:34:10.366Z,3.77
2022-11-27T12:36:59.179Z,4.53
2022-11-27T12:39:33.891Z,4.60
2022-11-27T12:42:06.729Z,5.93
2022-11-27T12:44:40.102Z,4.10
2022-11-27T12:47:23.132Z,5.03
2022-11-27T12:50:01.721Z,4.07
2022-11-27T12:52:45.942Z,6.70
2022-11-27T12:55:21.021Z,6.07
2022-11-27T12:58:00.384Z,3.90
2022-11-27T13:00:30.747Z,3.77
2022-11-27T13:03:00.228Z,3.60
2022-11-27T13:05:30.049Z,5.00
2022-11-27T13:08:05.141Z,7.67
2022-11-27T13:10:47.322Z,4.80
2022-11-27T13:13:30.317Z,14.77
2022-11-27T13:16:30.798Z,5.53
2022-11-27T13:19:12.851Z,4.93
2022-11-27T13:21:41.479Z,3.63
2022-11-27T13:24:12.622Z,4.30
2022-11-27T13:26:57.845Z,4.37
2022-11-27T13:29:53.839Z,3.27
2022-11-27T13:32:24.085Z,2.77
2022-11-27T13:34:53.024Z,3.80
2022-11-27T13:37:33.224Z,4.37
2022-11-27T13:40:30.563Z,3.97
2022-11-27T13:43:03.481Z,4.10
2022-11-27T13:45:34.029Z,3.80
2022-11-27T13:48:03.829Z,4.93
2022-11-27T13:50:31.845Z,4.13
2022-11-27T13:53:05.101Z,3.27
2022-11-27T13:55:40.423Z,3.80
2022-11-27T13:58:08.168Z,3.27
2022-11-27T14:00:38.365Z,5.00
2022-11-27T14:03:07.170Z,3.17
2022-11-27T14:05:41.698Z,3.87
2022-11-27T14:08:24.324Z,3.57
2022-11-27T14:11:02.699Z,8.20
2022-11-27T14:13:43.338Z,3.53
2022-11-27T14:16:31.412Z,3.40
2022-11-27T14:19:22.649Z,3.60
2022-11-27T14:21:49.752Z,3.50
2022-11-27T14:24:28.195Z,4.30
2022-11-27T14:26:55.584Z,4.80
2022-11-27T14:29:24.099Z,3.80
2022-11-27T14:31:59.486Z,3.70
2022-11-27T14:34:35.008Z,5.17
2022-11-27T14:37:01.911Z,3.53
2022-11-27T14:39:34.105Z,4.40
2022-11-27T14:42:03.320Z,5.00
2022-11-27T14:44:30.848Z,6.50
2022-11-27T14:47:01.632Z,9.70
2022-11-27T14:49:29.976Z,6.80
2022-11-27T14:52:02.012Z,4.40
2022-11-27T14:54:32.788Z,4.70
2022-11-27T14:56:59.499Z,4.30
2022-11-27T14:59:26.440Z,5.03
2022-11-27T15:02:15.939Z,4.33
2022-11-27T15:04:44.476Z,3.70
2022-11-27T15:07:31.736Z,4.60
2022-11-27T15:10:01.534Z,3.33
2022-11-27T15:12:30.620Z,4.30
2022-11-27T15:14:59.393Z,4.90
2022-11-27T15:17:32.058Z,4.10
2022-11-27T15:19:59.868Z,3.90
2022-11-27T15:22:26.786Z,4.30
2022-11-27T15:25:01.978Z,6.27
2022-11-27T15:27:32.692Z,8.83
2022-11-27T15:30:18.375Z,5.60
2022-11-27T15:32:51.495Z,5.23
2022-11-27T15:35:26.624Z,3.77
2022-11-27T15:37:56.384Z,6.10
2022-11-27T15:40:36.271Z,5.03
2022-11-27T15:43:11.269Z,5.47
2022-11-27T15:45:38.706Z,4.10
2022-11-27T15:48:05.684Z,4.57
2022-11-27T15:50:32.419Z,5.23
2022-11-27T15:53:01.065Z,5.60
2022-11-27T15:55:28.154Z,5.67
2022-11-27T15:57:54.897Z,6.93
2022-11-27T16:00:22.181Z,5.73
2022-11-27T16:02:49.064Z,3.93
2022-11-27T16:05:15.875Z,4.70
2022-11-27T16:07:42.641Z,4.17
2022-11-27T16:10:09.826Z,5.47
2022-11-27T16:12:38.772Z,5.27
2022-11-27T16:15:09.381Z,4.00
2022-11-27T16:17:36.147Z,6.73
2022-11-27T16:20:03.877Z,5.57
2022-11-27T16:22:30.656Z,4.70
2022-11-27T16:24:57.444Z,7.00
2022-11-27T16:27:24.267Z,4.13
2022-11-27T16:29:51.031Z,4.93
2022-11-27T16:32:17.845Z,5.30
2022-11-27T16:34:44.528Z,5.50
2022-11-27T16:37:17.005Z,4.73
2022-11-27T16:39:45.095Z,4.73
2022-11-27T16:42:12.052Z,8.00
2022-11-27T16:44:38.925Z,5.60
2022-11-27T16:47:06.129Z,4.33
2022-11-27T16:49:32.862Z,4.77
2022-11-27T16:51:59.575Z,4.83
2022-11-27T16:54:26.610Z,4.90
2022-11-27T16:56:53.332Z,4.70
2022-11-27T16:59:20.094Z,4.97
2022-11-27T17:01:47.595Z,5.90
2022-11-27T17:04:19.851Z,5.27
2022-11-27T17:06:48.384Z,5.33
2022-11-27T17:09:15.886Z,8.20
2022-11-27T17:11:45.918Z,4.90
2022-11-27T17:14:12.660Z,5.33
2022-11-27T17:16:41.849Z,12.20
2022-11-27T17:19:15.488Z,4.87
2022-11-27T17:21:42.570Z,7.87
2022-11-27T17:24:15.399Z,4.90
2022-11-27T17:26:44.038Z,6.43
2022-11-27T17:29:13.640Z,5.37
2022-11-27T17:31:40.582Z,5.10
2022-11-27T17:34:08.123Z,6.17
2022-11-27T17:36:37.423Z,6.07
2022-11-27T17:39:05.994Z,5.10
2022-11-27T17:41:33.334Z,5.47
2022-11-27T17:44:00.376Z,6.77
2022-11-27T17:46:28.749Z,5.53
2022-11-27T17:48:58.951Z,8.77
2022-11-27T17:51:27.517Z,5.00
2022-11-27T17:53:54.524Z,6.40
2022-11-27T17:56:22.272Z,4.80
2022-11-27T17:58:49.326Z,6.03
2022-11-27T18:01:25.020Z,7.60
2022-11-27T18:03:55.237Z,6.27
2022-11-27T18:06:22.872Z,4.60
2022-11-27T18:08:50.439Z,5.13
2022-11-27T18:11:23.359Z,5.63
2022-11-27T18:14:08.378Z,5.80
2022-11-27T18:16:38.652Z,5.60
2022-11-27T18:19:10.899Z,6.47
2022-11-27T18:21:50.813Z,5.67
2022-11-27T18:24:25.489Z,4.70
2022-11-27T18:27:09.681Z,4.73
2022-11-27T18:29:42.943Z,4.50
2022-11-27T18:32:32.105Z,5.80
2022-11-27T18:34:59.738Z,10.53
2022-11-27T18:37:28.705Z,7.67
2022-11-27T18:39:56.630Z,5.80
2022-11-27T18:42:23.464Z,5.43
2022-11-27T18:44:50.369Z,5.20
2022-11-27T18:47:17.826Z,5.50
2022-11-27T18:49:47.501Z,5.67
2022-11-27T18:52:14.335Z,5.57
2022-11-27T18:54:41.317Z,5.53
2022-11-27T18:57:08.624Z,6.60
2022-11-27T18:59:35.875Z,6.13
2022-11-27T19:02:03.367Z,5.27
2022-11-27T19:04:31.013Z,4.83
2022-11-27T19:06:57.822Z,5.47
2022-11-27T19:09:24.935Z,8.97
2022-11-27T19:11:51.597Z,5.13
2022-11-27T19:14:18.268Z,4.53
2022-11-27T19:16:46.355Z,5.03
2022-11-27T19:20:04.169Z,5.30
2022-11-27T19:22:06.469Z,5.87
2022-11-27T19:24:33.257Z,5.97
2022-11-27T19:27:00.044Z,5.50
2022-11-27T19:29:26.877Z,6.03
2022-11-27T19:31:56.141Z,6.30
2022-11-27T19:34:22.969Z,4.93
2022-11-27T19:36:49.735Z,5.23
2022-11-27T19:39:16.576Z,5.00
2022-11-27T19:41:43.913Z,5.63
2022-11-27T19:44:13.099Z,4.97
2022-11-27T19:46:41.008Z,5.77
2022-11-27T19:49:12.709Z,5.40
2022-11-27T19:51:39.851Z,5.97
2022-11-27T19:54:10.382Z,6.10
2022-11-27T19:56:39.628Z,5.50
2022-11-27T19:59:06.972Z,5.80
2022-11-27T20:01:33.843Z,7.27
2022-11-27T20:04:01.997Z,6.73
2022-11-27T20:06:28.883Z,5.83
2022-11-27T20:09:00.837Z,5.93
2022-11-27T20:11:34.227Z,5.83
2022-11-27T20:14:04.393Z,7.37
2022-11-27T20:16:32.220Z,5.30
2022-11-27T20:18:59.054Z,6.43
2022-11-27T20:21:26.498Z,7.50
2022-11-27T20:23:55.009Z,6.07
2022-11-27T20:26:24.990Z,5.20
2022-11-27T20:28:53.110Z,5.60
2022-11-27T20:31:25.596Z,8.10
2022-11-27T20:33:54.298Z,6.83
2022-11-27T20:36:22.275Z,5.43
2022-11-27T20:38:49.853Z,6.80
2022-11-27T20:41:18.640Z,5.80
2022-11-27T20:43:45.654Z,5.70
2022-11-27T20:46:17.701Z,6.60
2022-11-27T20:48:49.142Z,9.10
2022-11-27T20:51:18.951Z,6.13
2022-11-27T20:53:46.787Z,6.77
2022-11-27T20:56:15.820Z,7.43
2022-11-27T20:58:44.496Z,7.67
2022-11-27T21:01:20.119Z,11.77
2022-11-27T21:03:48.732Z,7.03
2022-11-27T21:06:16.944Z,7.67
2022-11-27T21:08:44.399Z,6.73
2022-11-27T21:11:15.664Z,6.57
2022-11-27T21:13:42.480Z,7.40
2022-11-27T21:16:13.992Z,6.40
2022-11-27T21:18:40.969Z,7.80
2022-11-27T21:21:13.424Z,7.30
2022-11-27T21:23:41.841Z,6.83
2022-11-27T21:26:11.144Z,6.13
2022-11-27T21:28:38.848Z,6.13
2022-11-27T21:31:17.758Z,6.40
2022-11-27T21:33:56.023Z,6.17
2022-11-27T21:36:25.673Z,8.37
2022-11-27T21:38:52.820Z,6.03
2022-11-27T21:41:20.039Z,8.07
2022-11-27T21:43:48.572Z,6.50
2022-11-27T21:46:22.643Z,6.63
2022-11-27T21:48:51.279Z,6.23
2022-11-27T21:51:21.148Z,6.80
2022-11-27T21:53:50.756Z,6.20
2022-11-27T21:56:20.242Z,10.27
2022-11-27T21:58:47.183Z,7.23
2022-11-27T22:01:16.391Z,6.03
2022-11-27T22:03:43.633Z,6.33
2022-11-27T22:06:12.821Z,5.93
2022-11-27T22:08:40.561Z,5.83
2022-11-27T22:11:13.462Z,5.83
2022-11-27T22:13:41.587Z,14.13
2022-11-27T22:16:14.647Z,5.60
2022-11-27T22:18:41.783Z,5.37
2022-11-27T22:21:10.637Z,8.90
2022-11-27T22:23:37.500Z,5.83
2022-11-27T22:26:07.152Z,5.60
2022-11-27T22:28:38.405Z,5.77
2022-11-27T22:31:13.185Z,6.17
2022-11-27T22:33:41.316Z,5.83
2022-11-27T22:36:12.289Z,6.33
2022-11-27T22:38:40.318Z,6.43
2022-11-27T22:41:07.555Z,5.70
2022-11-27T22:43:35.506Z,6.00
2022-11-27T22:46:14.738Z,6.93
2022-11-27T22:48:42.817Z,6.30
2022-11-27T22:51:10.263Z,5.90
2022-11-27T22:53:37.774Z,6.40
2022-11-27T22:56:10.310Z,6.03
2022-11-27T22:58:41.351Z,6.33
2022-11-27T23:01:20.288Z,5.63
2022-11-27T23:03:47.047Z,6.90
2022-11-27T23:06:15.804Z,5.63
2022-11-27T23:08:44.141Z,6.20
2022-11-27T23:11:15.029Z,5.90
2022-11-27T23:13:48.032Z,6.93
2022-11-27T23:16:17.401Z,6.13
2022-11-27T23:18:44.194Z,5.57
2022-11-27T23:21:14.239Z,6.57
2022-11-27T23:23:41.081Z,5.80
2022-11-27T23:26:16.127Z,6.87
2022-11-27T23:28:45.159Z,6.50
2022-11-27T23:31:29.497Z,5.90
2022-11-27T23:33:57.377Z,8.23
2022-11-27T23:36:24.199Z,5.63
2022-11-27T23:38:50.929Z,7.30
2022-11-27T23:41:20.768Z,5.90
2022-11-27T23:43:48.030Z,6.07
2022-11-27T23:46:16.749Z,5.20
2022-11-27T23:48:44.210Z,6.30
2022-11-27T23:51:14.320Z,5.30
2022-11-27T23:53:41.388Z,6.50
2022-11-27T23:56:12.107Z,5.60
2022-11-27T23:58:42.418Z,8.73
